Terminal Aerodrome Forecast
Issued by NWS

Home | Current Version | Previous Version | Text Only | Print | Product List | Glossary On
Versions: 1 2 3 4 5 6 7 8 9 10 11 12 13 14 15 16
000
FTUS43 KDTX 261120
TAFMBS
TAF
KMBS 261120Z 2612/2712 09005KT P6SM OVC025
     FM261800 03005KT P6SM BKN035 BKN200
     FM270400 30005KT P6SM BKN040 OVC200=

USA.gov is the U.S. government's official web portal to all federal, state and local government web resources and services.